Time;durP1;ratioP1;P1;durP2;ratioP2;P2;SDS_P1;SDS_P2;PMS_P1;PMS_P2;Temp;Humidity;BMP_temperature;BMP_pressure;BME280_temperature;BME280_humidity;BME280_pressure;Samples;Min_cycle;Max_cycle;Signal;HPM_P1;HPM_P2
2022/01/05 00:00:18;;;;;;;7.67;3.30;;;4.50;99.90;;;;;;5067323;28;20216;-63
2022/01/05 00:02:44;;;;;;;3.50;3.20;;;4.50;99.90;;;;;;5072877;28;20279;-63
2022/01/05 00:05:10;;;;;;;11.07;4.00;;;4.50;99.90;;;;;;5077204;28;20637;-62
2022/01/05 00:07:36;;;;;;;9.07;3.13;;;4.40;99.90;;;;;;5096267;28;20196;-61
2022/01/05 00:10:04;;;;;;;6.27;3.13;;;4.50;99.90;;;;;;5068715;28;20613;-61
2022/01/05 00:12:29;;;;;;;6.87;3.90;;;4.50;99.90;;;;;;5078108;28;20230;-61
2022/01/05 00:14:55;;;;;;;7.80;3.63;;;4.60;99.90;;;;;;5095592;28;20605;-61
2022/01/05 00:17:21;;;;;;;7.50;3.60;;;4.60;99.90;;;;;;5095988;28;20227;-60
2022/01/05 00:19:46;;;;;;;12.80;3.63;;;4.60;99.90;;;;;;5068905;28;20593;-61
2022/01/05 00:22:12;;;;;;;14.87;3.77;;;4.40;99.90;;;;;;5077651;28;20192;-61
2022/01/05 00:24:38;;;;;;;6.70;3.43;;;4.30;99.90;;;;;;5077764;28;20238;-60
2022/01/05 00:27:04;;;;;;;7.73;3.63;;;4.30;99.90;;;;;;5077507;28;20653;-60
2022/01/05 00:29:30;;;;;;;7.23;3.40;;;4.30;99.90;;;;;;5077367;28;20664;-60
2022/01/05 00:31:56;;;;;;;6.50;3.47;;;4.20;99.90;;;;;;5094961;28;20185;-61
2022/01/05 00:34:22;;;;;;;11.67;3.73;;;4.10;99.90;;;;;;5067672;28;20184;-60
2022/01/05 00:36:47;;;;;;;9.57;3.40;;;4.20;99.90;;;;;;5094365;28;20208;-60
2022/01/05 00:39:13;;;;;;;3.77;2.73;;;4.20;99.90;;;;;;5077027;28;20257;-63
2022/01/05 00:41:39;;;;;;;7.90;3.30;;;4.30;99.90;;;;;;5077790;28;20322;-60
2022/01/05 00:44:05;;;;;;;8.40;2.90;;;4.30;99.90;;;;;;5060512;28;20189;-64
2022/01/05 00:46:31;;;;;;;4.20;3.77;;;4.10;99.90;;;;;;5094929;28;20726;-61
2022/01/05 00:48:57;;;;;;;9.20;3.17;;;4.10;99.90;;;;;;5076979;28;20192;-61
2022/01/05 00:51:22;;;;;;;8.70;3.33;;;4.00;99.90;;;;;;5060416;28;20188;-60
2022/01/05 00:53:48;;;;;;;9.13;2.90;;;4.10;99.90;;;;;;5094803;28;20527;-60
2022/01/05 00:56:14;;;;;;;7.83;2.77;;;4.10;99.90;;;;;;5095325;28;20610;-61
2022/01/05 00:58:39;;;;;;;10.90;3.10;;;4.20;99.90;;;;;;5094252;28;20185;-60
2022/01/05 01:01:05;;;;;;;6.33;2.73;;;4.10;99.90;;;;;;5094230;28;20208;-61
2022/01/05 01:03:31;;;;;;;10.63;2.83;;;4.00;99.90;;;;;;5076905;28;20188;-61
2022/01/05 01:05:59;;;;;;;11.20;3.60;;;3.90;99.90;;;;;;5094963;28;20564;-60
2022/01/05 01:08:25;;;;;;;4.80;2.77;;;3.90;99.90;;;;;;5075521;28;20201;-61
2022/01/05 01:10:52;;;;;;;6.03;3.63;;;3.90;99.90;;;;;;5059815;28;20639;-60
2022/01/05 01:13:18;;;;;;;7.60;3.33;;;4.00;99.90;;;;;;5093897;28;20457;-61
2022/01/05 01:15:45;;;;;;;5.97;2.80;;;4.10;99.90;;;;;;5094421;28;20212;-60
2022/01/05 01:18:11;;;;;;;5.60;3.27;;;4.00;99.90;;;;;;5094650;28;20208;-60
2022/01/05 01:20:37;;;;;;;7.73;3.40;;;3.90;99.90;;;;;;5094850;28;20667;-60
2022/01/05 01:23:03;;;;;;;8.87;4.10;;;3.90;99.90;;;;;;5094469;28;20193;-60
2022/01/05 01:25:29;;;;;;;8.53;3.07;;;4.00;99.90;;;;;;5094746;28;20184;-61
2022/01/05 01:27:54;;;;;;;3.27;2.13;;;4.00;99.90;;;;;;5093496;28;20193;-61
2022/01/05 01:30:20;;;;;;;6.80;2.77;;;3.90;99.90;;;;;;5075097;28;20646;-61
2022/01/05 01:32:46;;;;;;;9.13;2.13;;;4.00;99.90;;;;;;5052229;28;20192;-61
2022/01/05 01:35:12;;;;;;;5.30;2.60;;;4.00;99.90;;;;;;5094330;28;20605;-61
2022/01/05 01:37:38;;;;;;;7.03;2.27;;;4.00;99.90;;;;;;5093304;28;20209;-68
2022/01/05 01:40:05;;;;;;;5.93;2.43;;;4.00;99.90;;;;;;5076173;28;20204;-60
2022/01/05 01:42:31;;;;;;;9.37;3.00;;;4.00;99.90;;;;;;5094427;28;20181;-60
2022/01/05 01:44:57;;;;;;;10.37;4.77;;;4.20;99.90;;;;;;5062907;28;20227;-60
2022/01/05 01:47:23;;;;;;;6.47;2.83;;;4.10;99.90;;;;;;5072400;28;20227;-59
2022/01/05 01:49:49;;;;;;;7.37;3.67;;;4.10;99.90;;;;;;5068261;28;20239;-59
2022/01/05 01:52:15;;;;;;;10.63;2.50;;;4.00;99.90;;;;;;5068639;28;20275;-60
2022/01/05 01:54:40;;;;;;;9.07;2.63;;;3.90;99.90;;;;;;5093869;28;20188;-60
2022/01/05 01:57:07;;;;;;;6.27;3.33;;;3.80;99.90;;;;;;5093819;28;20212;-59
2022/01/05 01:59:34;;;;;;;9.20;2.57;;;3.80;99.90;;;;;;5093331;28;20189;-60
2022/01/05 02:02:00;;;;;;;4.20;2.83;;;3.80;99.90;;;;;;5076313;28;20276;-60
2022/01/05 02:04:26;;;;;;;10.77;3.07;;;3.80;99.90;;;;;;5093029;28;20272;-59
2022/01/05 02:06:52;;;;;;;4.20;2.67;;;3.80;99.90;;;;;;5094045;28;20271;-59
2022/01/05 02:09:18;;;;;;;6.63;3.17;;;3.80;99.90;;;;;;5092641;28;20199;-59
2022/01/05 02:11:44;;;;;;;7.03;2.53;;;3.70;99.90;;;;;;5093735;28;20276;-59
2022/01/05 02:14:10;;;;;;;9.67;3.17;;;3.70;99.90;;;;;;5075676;28;20287;-59
2022/01/05 02:16:40;;;;;;;8.90;3.70;;;3.70;99.90;;;;;;5075366;28;20196;-59
2022/01/05 02:19:06;;;;;;;8.53;3.67;;;3.70;99.90;;;;;;5086445;28;20188;-59
2022/01/05 02:21:33;;;;;;;12.90;4.10;;;3.80;99.90;;;;;;5093374;28;20196;-59
2022/01/05 02:24:00;;;;;;;10.43;4.10;;;3.80;99.90;;;;;;5075216;28;20196;-59
2022/01/05 02:26:26;;;;;;;16.53;3.37;;;3.80;99.90;;;;;;5074342;28;20195;-59
2022/01/05 02:28:52;;;;;;;13.37;4.53;;;3.60;99.90;;;;;;5093413;28;20181;-59
2022/01/05 02:31:18;;;;;;;6.60;3.20;;;3.60;99.90;;;;;;5075117;28;20241;-59
2022/01/05 02:33:44;;;;;;;12.07;3.07;;;3.60;99.90;;;;;;5057849;28;20256;-59
2022/01/05 02:36:13;;;;;;;9.80;2.73;;;3.60;99.90;;;;;;5093671;28;20184;-60
2022/01/05 02:38:39;;;;;;;6.23;2.97;;;3.50;99.90;;;;;;5093245;28;20203;-60
2022/01/05 02:41:07;;;;;;;10.17;3.00;;;3.50;99.90;;;;;;5088401;28;20180;-59
2022/01/05 02:43:37;;;;;;;7.63;3.63;;;3.50;99.90;;;;;;5083984;28;20210;-60
2022/01/05 02:46:03;;;;;;;10.47;4.10;;;3.40;99.90;;;;;;5074912;28;20705;-60
2022/01/05 02:48:30;;;;;;;4.67;3.00;;;3.40;99.90;;;;;;5083196;28;20561;-60
2022/01/05 02:50:57;;;;;;;8.00;3.03;;;3.30;99.90;;;;;;5085575;28;20191;-60
2022/01/05 02:53:23;;;;;;;8.67;3.07;;;3.30;99.90;;;;;;5081462;28;20216;-62
2022/01/05 02:55:49;;;;;;;9.80;2.90;;;3.30;99.90;;;;;;5065012;28;20195;-60
2022/01/05 02:58:15;;;;;;;8.53;3.53;;;3.40;99.90;;;;;;5082087;28;20567;-61
2022/01/05 03:00:41;;;;;;;6.10;2.60;;;3.40;99.90;;;;;;5050985;28;20192;-60
2022/01/05 03:03:06;;;;;;;13.53;3.10;;;3.30;99.90;;;;;;5074212;28;20276;-59
2022/01/05 03:05:32;;;;;;;11.33;3.60;;;3.40;99.90;;;;;;5057557;28;20717;-59
2022/01/05 03:07:58;;;;;;;7.73;3.20;;;3.30;99.90;;;;;;5062140;28;20776;-60
2022/01/05 03:10:24;;;;;;;8.70;3.53;;;3.30;99.90;;;;;;5082311;28;20280;-60
2022/01/05 03:12:52;;;;;;;9.07;3.10;;;3.40;99.90;;;;;;5072948;28;20576;-59
2022/01/05 03:15:18;;;;;;;5.77;3.17;;;3.50;99.90;;;;;;5076031;28;20185;-59
2022/01/05 03:17:44;;;;;;;7.03;3.23;;;3.50;99.90;;;;;;5074368;28;20228;-59
2022/01/05 03:20:14;;;;;;;8.30;2.80;;;3.40;99.90;;;;;;5074184;28;20188;-61
2022/01/05 03:22:41;;;;;;;7.57;2.60;;;3.30;99.90;;;;;;5062158;28;20189;-60
2022/01/05 03:25:09;;;;;;;6.13;2.83;;;3.30;99.90;;;;;;5081202;28;20188;-60
2022/01/05 03:27:35;;;;;;;5.33;2.80;;;3.30;99.90;;;;;;5092414;28;20191;-59
2022/01/05 03:30:01;;;;;;;17.00;3.90;;;3.30;99.90;;;;;;5090939;28;20184;-59
2022/01/05 03:32:36;;;;;;;13.27;3.73;;;3.40;99.90;;;;;;5074316;28;20199;-59
2022/01/05 03:35:02;;;;;;;6.03;2.80;;;3.40;99.90;;;;;;5091678;28;20184;-60
2022/01/05 03:37:27;;;;;;;7.23;2.63;;;3.40;99.90;;;;;;5091239;28;20218;-60
2022/01/05 03:39:53;;;;;;;8.60;4.30;;;3.30;99.90;;;;;;5057776;28;20238;-59
2022/01/05 03:42:19;;;;;;;5.33;2.93;;;3.40;99.90;;;;;;5092494;28;20602;-60
2022/01/05 03:44:44;;;;;;;10.03;3.50;;;3.30;99.90;;;;;;5073642;28;20555;-59
2022/01/05 03:47:10;;;;;;;3.77;2.73;;;3.20;99.90;;;;;;5074391;28;20188;-59
2022/01/05 03:49:35;;;;;;;10.47;2.60;;;3.20;99.90;;;;;;5091310;28;20201;-60
2022/01/05 03:52:03;;;;;;;5.73;3.13;;;3.20;99.90;;;;;;5074343;28;20173;-60
2022/01/05 03:54:28;;;;;;;12.43;3.33;;;3.30;99.90;;;;;;5071473;28;20193;-60
2022/01/05 03:56:54;;;;;;;6.00;2.70;;;3.40;99.90;;;;;;5092170;28;20235;-60
2022/01/05 03:59:21;;;;;;;8.60;2.80;;;3.30;99.90;;;;;;5091994;28;20667;-59
2022/01/05 04:01:46;;;;;;;11.93;5.90;;;3.30;99.90;;;;;;5056144;28;20249;-59
2022/01/05 04:04:12;;;;;;;10.23;2.60;;;3.40;99.90;;;;;;5073889;28;20189;-59
2022/01/05 04:06:38;;;;;;;17.70;3.50;;;3.40;99.90;;;;;;5091805;28;20280;-59
2022/01/05 04:09:03;;;;;;;6.70;3.17;;;3.30;99.90;;;;;;5092012;28;20199;-59
2022/01/05 04:11:29;;;;;;;5.47;3.07;;;3.30;99.90;;;;;;5056968;28;20197;-59
2022/01/05 04:13:55;;;;;;;12.97;3.87;;;3.30;99.90;;;;;;5072808;28;20189;-59
2022/01/05 04:16:20;;;;;;;6.93;2.93;;;3.20;99.90;;;;;;5073512;28;20204;-59
2022/01/05 04:18:46;;;;;;;13.13;3.50;;;3.20;99.90;;;;;;5091705;28;20221;-61
2022/01/05 04:21:12;;;;;;;8.67;3.03;;;3.20;99.90;;;;;;5073741;28;20192;-60
2022/01/05 04:23:37;;;;;;;10.67;3.27;;;3.30;99.90;;;;;;5091710;28;20192;-59
2022/01/05 04:26:03;;;;;;;5.37;3.10;;;3.50;99.90;;;;;;5092659;28;20181;-59
2022/01/05 04:28:29;;;;;;;12.23;3.50;;;3.50;99.90;;;;;;5091308;28;20648;-59
2022/01/05 04:30:54;;;;;;;6.23;3.00;;;3.40;99.90;;;;;;5090950;28;20215;-59
2022/01/05 04:33:20;;;;;;;7.87;3.20;;;3.40;99.90;;;;;;5091134;28;20191;-60
2022/01/05 04:35:45;;;;;;;5.93;3.13;;;3.40;99.90;;;;;;5074005;28;20181;-59
2022/01/05 04:38:11;;;;;;;12.00;3.27;;;3.40;99.90;;;;;;5073668;28;20223;-59
2022/01/05 04:40:37;;;;;;;7.97;3.20;;;3.50;99.90;;;;;;5073366;28;20192;-59
2022/01/05 04:43:02;;;;;;;18.67;3.63;;;3.30;99.90;;;;;;5075363;28;20184;-59
2022/01/05 04:45:28;;;;;;;8.47;3.07;;;3.30;99.90;;;;;;5076266;28;20195;-60
2022/01/05 04:47:56;;;;;;;8.27;3.20;;;3.30;99.90;;;;;;5077411;28;20505;-62
2022/01/05 04:50:22;;;;;;;6.80;3.10;;;3.30;99.90;;;;;;5095152;28;20204;-60
2022/01/05 04:52:48;;;;;;;6.40;4.73;;;3.20;99.90;;;;;;5095451;28;20642;-61
2022/01/05 04:55:13;;;;;;;6.80;3.73;;;3.10;99.90;;;;;;5076892;28;20188;-59
2022/01/05 04:57:39;;;;;;;13.40;3.10;;;3.10;99.90;;;;;;5095001;28;20196;-63
2022/01/05 05:00:05;;;;;;;8.37;3.60;;;3.20;99.90;;;;;;5095644;28;20211;-59
2022/01/05 05:02:31;;;;;;;15.80;3.50;;;3.10;99.90;;;;;;5094016;28;20669;-59
2022/01/05 05:04:57;;;;;;;11.17;3.63;;;3.00;99.90;;;;;;5095172;28;20185;-60
2022/01/05 05:07:22;;;;;;;9.10;3.93;;;3.10;99.90;;;;;;5094941;28;20363;-60
2022/01/05 05:09:48;;;;;;;8.57;4.30;;;3.20;99.90;;;;;;5094433;28;20189;-60
2022/01/05 05:12:14;;;;;;;10.87;3.87;;;3.20;99.90;;;;;;5076284;28;20639;-65
2022/01/05 05:14:39;;;;;;;6.80;3.43;;;3.30;99.90;;;;;;5060356;28;20192;-62
2022/01/05 05:17:05;;;;;;;13.33;3.73;;;3.30;99.90;;;;;;5076753;28;20269;-60
2022/01/05 05:19:31;;;;;;;3.33;2.83;;;3.30;99.90;;;;;;5094889;28;20279;-60
2022/01/05 05:21:58;;;;;;;10.50;3.67;;;3.40;99.90;;;;;;5094523;28;20195;-60
2022/01/05 05:24:23;;;;;;;19.63;3.83;;;3.40;99.90;;;;;;5094628;28;20657;-59
2022/01/05 05:26:49;;;;;;;10.97;3.90;;;3.30;99.90;;;;;;5075723;28;20188;-60
2022/01/05 05:29:15;;;;;;;6.67;2.90;;;3.30;99.90;;;;;;5067774;28;20185;-60
2022/01/05 05:31:40;;;;;;;9.17;5.10;;;3.20;99.90;;;;;;5084095;28;20185;-65
2022/01/05 05:34:06;;;;;;;9.57;3.97;;;3.20;99.90;;;;;;5076582;28;20208;-59
2022/01/05 05:36:32;;;;;;;8.13;3.00;;;3.20;99.90;;;;;;5094374;28;20200;-60
2022/01/05 05:38:57;;;;;;;9.10;4.00;;;3.20;99.90;;;;;;5094364;28;20185;-60
2022/01/05 05:41:23;;;;;;;12.57;3.00;;;3.20;99.90;;;;;;5093805;28;20193;-60
2022/01/05 05:43:49;;;;;;;9.70;3.13;;;3.20;99.90;;;;;;5076003;28;20280;-60
2022/01/05 05:46:15;;;;;;;8.53;4.00;;;3.20;99.90;;;;;;5094104;28;20216;-60
2022/01/05 05:48:41;;;;;;;8.17;3.00;;;3.30;99.90;;;;;;5093263;28;20196;-61
2022/01/05 05:51:07;;;;;;;6.87;3.63;;;3.30;99.90;;;;;;5076787;28;20176;-65
2022/01/05 05:53:32;;;;;;;12.80;3.67;;;3.30;99.90;;;;;;5075679;28;20201;-60
2022/01/05 05:55:58;;;;;;;6.30;3.17;;;3.30;99.90;;;;;;5093320;28;20549;-60
2022/01/05 05:58:24;;;;;;;8.87;3.20;;;3.30;99.90;;;;;;5059061;28;20201;-61
2022/01/05 06:00:49;;;;;;;10.03;3.77;;;3.40;99.90;;;;;;5094648;28;20188;-60
2022/01/05 06:03:15;;;;;;;12.43;3.00;;;3.40;99.90;;;;;;5092813;28;20181;-60
2022/01/05 06:05:44;;;;;;;6.80;3.30;;;3.50;99.90;;;;;;5093473;28;21261;-60
2022/01/05 06:08:10;;;;;;;9.67;3.37;;;3.50;99.90;;;;;;5059027;28;20189;-60
2022/01/05 06:10:35;;;;;;;6.83;3.47;;;3.60;99.90;;;;;;5075393;28;20219;-60
2022/01/05 06:13:01;;;;;;;7.97;3.30;;;3.70;99.90;;;;;;5093721;28;20180;-60
2022/01/05 06:15:27;;;;;;;7.70;2.63;;;3.80;99.90;;;;;;5093677;28;20193;-60
2022/01/05 06:17:52;;;;;;;5.80;2.50;;;3.90;99.90;;;;;;5093305;28;20204;-65
2022/01/05 06:20:18;;;;;;;8.33;3.13;;;4.00;99.90;;;;;;5093482;28;20193;-62
2022/01/05 06:22:44;;;;;;;9.23;3.10;;;3.90;99.90;;;;;;5092541;28;20185;-60
2022/01/05 06:25:11;;;;;;;7.60;2.43;;;4.00;99.90;;;;;;5093453;28;20197;-60
2022/01/05 06:27:37;;;;;;;8.40;3.03;;;4.10;99.90;;;;;;5093329;28;20551;-60
2022/01/05 06:30:06;;;;;;;8.57;2.90;;;4.10;99.90;;;;;;5092954;28;20668;-63
2022/01/05 06:32:34;;;;;;;3.37;3.03;;;4.10;99.90;;;;;;5092877;28;20184;-66
2022/01/05 06:35:03;;;;;;;6.10;2.77;;;4.10;99.90;;;;;;5093168;28;20193;-59
2022/01/05 06:37:28;;;;;;;7.83;2.83;;;4.00;99.90;;;;;;5058870;28;20732;-60
2022/01/05 06:39:54;;;;;;;12.77;2.80;;;3.80;99.90;;;;;;5092264;28;20259;-60
2022/01/05 06:42:20;;;;;;;14.83;3.20;;;3.70;99.90;;;;;;5092969;28;20218;-60
2022/01/05 06:44:46;;;;;;;10.93;2.43;;;3.90;99.90;;;;;;5092710;28;20271;-60
2022/01/05 06:47:11;;;;;;;7.57;2.67;;;3.90;99.90;;;;;;5074903;28;20555;-60
2022/01/05 06:49:37;;;;;;;10.27;2.70;;;3.80;99.90;;;;;;5092057;28;20189;-61
2022/01/05 06:52:04;;;;;;;14.73;4.07;;;4.00;99.90;;;;;;5092955;28;20181;-59
2022/01/05 06:54:30;;;;;;;4.33;2.30;;;4.10;99.90;;;;;;5075514;28;20543;-61
2022/01/05 06:56:56;;;;;;;12.53;3.00;;;4.00;99.90;;;;;;5092582;28;20209;-63
2022/01/05 06:59:21;;;;;;;4.13;2.60;;;4.10;99.90;;;;;;5075082;28;20553;-62
2022/01/05 07:01:47;;;;;;;11.27;2.90;;;4.20;99.90;;;;;;5074602;28;20192;-61
2022/01/05 07:04:13;;;;;;;3.77;2.83;;;4.10;99.90;;;;;;5092311;28;20184;-61
2022/01/05 07:06:39;;;;;;;8.83;2.70;;;4.00;99.90;;;;;;5074048;28;20641;-61
2022/01/05 07:09:05;;;;;;;10.73;3.60;;;4.10;99.90;;;;;;5092756;28;20238;-62
2022/01/05 07:11:32;;;;;;;7.70;2.67;;;4.10;99.90;;;;;;5092852;28;20192;-62
2022/01/05 07:13:58;;;;;;;8.63;5.07;;;4.10;99.90;;;;;;5074962;28;20223;-66
2022/01/05 07:16:24;;;;;;;6.10;3.40;;;4.00;99.90;;;;;;5057843;28;20246;-61
2022/01/05 07:18:49;;;;;;;6.57;3.77;;;4.00;99.90;;;;;;5091590;28;20196;-61
2022/01/05 07:21:15;;;;;;;7.60;3.20;;;4.00;99.90;;;;;;5054803;28;20185;-62
2022/01/05 07:23:41;;;;;;;4.33;3.57;;;3.90;99.90;;;;;;5090798;28;20196;-61
2022/01/05 07:26:07;;;;;;;6.83;3.33;;;4.10;99.90;;;;;;5065033;28;20206;-62
2022/01/05 07:28:33;;;;;;;7.40;3.67;;;4.20;99.90;;;;;;5069693;28;20643;-62
2022/01/05 07:30:58;;;;;;;9.27;3.13;;;4.20;99.90;;;;;;5089615;28;20522;-62
2022/01/05 07:33:26;;;;;;;9.53;3.00;;;4.20;99.90;;;;;;5091611;28;20189;-63
2022/01/05 07:35:52;;;;;;;10.33;3.17;;;4.30;99.90;;;;;;5092576;28;20218;-61
2022/01/05 07:38:18;;;;;;;7.47;3.03;;;4.20;99.90;;;;;;5058695;28;20200;-62
2022/01/05 07:40:44;;;;;;;7.77;3.20;;;4.30;99.90;;;;;;5068591;28;20188;-64
2022/01/05 07:43:09;;;;;;;15.27;2.70;;;4.20;99.90;;;;;;5054686;28;20193;-62
2022/01/05 07:45:35;;;;;;;4.67;2.17;;;4.10;99.90;;;;;;5067971;28;20702;-63
2022/01/05 07:48:02;;;;;;;4.30;2.40;;;4.20;99.90;;;;;;5057436;28;20676;-63
2022/01/05 07:50:28;;;;;;;13.60;2.73;;;4.30;99.90;;;;;;5074458;28;20594;-63
2022/01/05 07:52:54;;;;;;;7.07;3.00;;;4.30;99.90;;;;;;5060858;28;20189;-65
2022/01/05 07:55:20;;;;;;;9.80;3.20;;;4.30;99.90;;;;;;5091344;28;20192;-64
2022/01/05 07:57:46;;;;;;;9.57;3.17;;;4.40;99.90;;;;;;5073906;28;20216;-64
2022/01/05 08:00:12;;;;;;;14.73;3.97;;;4.50;99.90;;;;;;5074097;28;20620;-64
2022/01/05 08:02:38;;;;;;;7.97;2.93;;;4.50;99.90;;;;;;5057244;28;20189;-64
2022/01/05 08:05:04;;;;;;;4.73;2.27;;;4.40;99.90;;;;;;5074133;28;20195;-63
2022/01/05 08:07:30;;;;;;;3.57;2.77;;;4.50;99.90;;;;;;5074194;28;20193;-64
2022/01/05 08:09:56;;;;;;;13.50;3.27;;;4.60;99.90;;;;;;5073906;28;20215;-66
2022/01/05 08:12:21;;;;;;;7.90;3.57;;;4.60;99.90;;;;;;5073391;28;20275;-64
2022/01/05 08:14:48;;;;;;;6.13;3.70;;;4.70;99.90;;;;;;5092204;28;20257;-64
2022/01/05 08:17:14;;;;;;;6.50;3.80;;;4.60;99.90;;;;;;5058498;28;20216;-64
2022/01/05 08:19:41;;;;;;;7.90;3.13;;;4.70;99.90;;;;;;5076906;28;20192;-64
2022/01/05 08:22:07;;;;;;;9.73;3.03;;;4.90;99.90;;;;;;5065392;28;20226;-64
2022/01/05 08:24:33;;;;;;;7.20;3.27;;;5.00;99.90;;;;;;5095656;28;20181;-64
2022/01/05 08:26:59;;;;;;;14.53;3.83;;;4.90;99.90;;;;;;5065509;28;20546;-64
2022/01/05 08:29:24;;;;;;;14.20;3.20;;;4.80;99.90;;;;;;5095792;28;20283;-64
2022/01/05 08:31:50;;;;;;;15.17;3.80;;;4.80;99.90;;;;;;5062929;28;20662;-64
2022/01/05 08:34:16;;;;;;;9.17;3.17;;;5.00;99.90;;;;;;5091564;28;20263;-64
2022/01/05 08:36:42;;;;;;;7.73;3.40;;;4.80;99.90;;;;;;5077599;28;20254;-64
2022/01/05 08:39:07;;;;;;;8.93;3.07;;;4.80;99.90;;;;;;5076445;28;20196;-64
2022/01/05 08:41:33;;;;;;;7.60;3.50;;;4.80;99.90;;;;;;5077092;28;20653;-64
2022/01/05 08:43:59;;;;;;;11.03;2.63;;;4.90;99.90;;;;;;5077352;28;20272;-64
2022/01/05 08:46:24;;;;;;;8.00;2.97;;;5.00;99.90;;;;;;5095393;28;20207;-63
2022/01/05 08:48:50;;;;;;;4.63;2.43;;;4.90;99.90;;;;;;5076739;28;20558;-64
2022/01/05 08:51:16;;;;;;;9.60;3.00;;;5.00;99.90;;;;;;5095584;28;20271;-64
2022/01/05 08:53:42;;;;;;;6.70;3.43;;;5.20;99.90;;;;;;5074705;28;20238;-64
2022/01/05 08:56:08;;;;;;;18.63;4.30;;;5.20;99.90;;;;;;5095190;28;20653;-64
2022/01/05 08:58:33;;;;;;;8.70;3.73;;;5.40;99.90;;;;;;5076099;28;20209;-64
2022/01/05 09:00:59;;;;;;;13.23;4.73;;;5.30;99.90;;;;;;5060230;28;20203;-64
2022/01/05 09:03:25;;;;;;;10.90;3.57;;;5.40;99.90;;;;;;5077021;28;20188;-64
2022/01/05 09:05:51;;;;;;;10.87;3.13;;;5.30;99.90;;;;;;5060366;28;20196;-64
2022/01/05 09:08:17;;;;;;;10.17;3.67;;;5.20;99.90;;;;;;5094905;28;20200;-64
2022/01/05 09:10:43;;;;;;;7.63;2.63;;;5.30;99.90;;;;;;5094183;28;20677;-64
2022/01/05 09:13:12;;;;;;;8.60;2.67;;;5.30;99.90;;;;;;5076674;28;20642;-64
2022/01/05 09:15:40;;;;;;;9.83;3.17;;;5.30;99.90;;;;;;5094854;28;20238;-65
2022/01/05 09:18:06;;;;;;;6.20;3.20;;;5.30;99.90;;;;;;5076708;28;20204;-64
2022/01/05 09:20:32;;;;;;;9.10;3.37;;;5.40;99.90;;;;;;5094513;28;20645;-64
2022/01/05 09:22:58;;;;;;;11.03;2.77;;;5.50;99.90;;;;;;5094573;28;20185;-64
2022/01/05 09:25:24;;;;;;;16.47;3.30;;;5.50;99.90;;;;;;5093503;28;20275;-64
2022/01/05 09:27:51;;;;;;;14.27;3.70;;;5.50;99.90;;;;;;5059566;28;20226;-63
2022/01/05 09:30:18;;;;;;;7.90;4.00;;;5.50;99.90;;;;;;5094395;28;20228;-64
2022/01/05 09:32:44;;;;;;;8.90;2.93;;;5.50;99.90;;;;;;5075637;28;20188;-64
2022/01/05 09:35:15;;;;;;;8.67;3.90;;;5.60;99.90;;;;;;5094624;28;20187;-64
2022/01/05 09:37:52;;;;;;;7.10;2.80;;;5.70;99.90;;;;;;5076215;28;20212;-64
2022/01/05 09:43:04;;;;;;;11.17;3.37;;;6.00;99.90;;;;;;5079182;28;20625;-64
2022/01/05 09:45:33;;;;;;;16.37;3.43;;;6.10;99.90;;;;;;5076220;28;20268;-64
2022/01/05 09:48:05;;;;;;;4.93;3.30;;;5.90;99.90;;;;;;5094041;28;20185;-64
2022/01/05 09:50:32;;;;;;;9.60;3.37;;;6.00;99.90;;;;;;5094130;28;20180;-64
2022/01/05 09:52:59;;;;;;;8.10;3.17;;;6.00;99.90;;;;;;5075190;28;20272;-65
2022/01/05 09:55:25;;;;;;;16.17;3.10;;;6.20;99.90;;;;;;5076271;28;20571;-65
2022/01/05 09:57:51;;;;;;;11.10;3.40;;;6.20;99.90;;;;;;5094021;28;20302;-65
2022/01/05 10:00:17;;;;;;;13.07;3.60;;;6.30;99.90;;;;;;5075662;28;20535;-64
2022/01/05 10:02:45;;;;;;;9.60;3.23;;;6.30;99.90;;;;;;5093871;28;20277;-64
2022/01/05 10:05:14;;;;;;;6.40;2.30;;;6.10;99.90;;;;;;5058510;28;20191;-65
2022/01/05 10:07:41;;;;;;;6.53;3.00;;;6.10;99.90;;;;;;5059267;28;20196;-64
2022/01/05 10:10:08;;;;;;;10.30;3.30;;;6.30;99.90;;;;;;5092528;28;20197;-64
2022/01/05 10:12:34;;;;;;;9.53;2.97;;;6.30;99.90;;;;;;5093725;28;20263;-64
2022/01/05 10:14:59;;;;;;;5.07;3.20;;;6.30;99.90;;;;;;5075749;28;20323;-64
2022/01/05 10:17:30;;;;;;;16.50;4.27;;;6.40;99.90;;;;;;5074657;28;20215;-64
2022/01/05 10:20:09;;;;;;;5.37;3.10;;;6.50;99.90;;;;;;5075132;28;20188;-64
2022/01/05 10:22:40;;;;;;;13.17;3.60;;;6.50;99.90;;;;;;5093282;28;20173;-64
2022/01/05 10:25:13;;;;;;;10.77;3.90;;;6.40;99.90;;;;;;5093196;28;20212;-64
2022/01/05 10:27:39;;;;;;;13.20;3.87;;;6.50;99.90;;;;;;5075245;28;20236;-64
2022/01/05 10:30:13;;;;;;;8.43;3.03;;;6.70;99.90;;;;;;5075090;28;20275;-64
2022/01/05 10:32:43;;;;;;;6.13;3.27;;;6.70;99.90;;;;;;5093320;28;20645;-64
2022/01/05 10:35:16;;;;;;;12.63;4.27;;;6.70;99.90;;;;;;5075115;28;20192;-64
2022/01/05 10:37:44;;;;;;;10.50;4.07;;;6.60;99.90;;;;;;5074663;28;20196;-67
2022/01/05 10:40:14;;;;;;;9.43;2.90;;;6.60;99.90;;;;;;5084146;28;20185;-65
2022/01/05 10:42:41;;;;;;;12.73;3.70;;;6.60;99.90;;;;;;5074248;28;20184;-65
2022/01/05 10:45:11;;;;;;;6.13;3.53;;;6.70;99.90;;;;;;5093111;28;20237;-67
2022/01/05 10:47:38;;;;;;;7.50;3.97;;;6.70;99.90;;;;;;5093343;28;20216;-65
2022/01/05 10:50:06;;;;;;;7.60;3.37;;;6.60;99.90;;;;;;5092916;28;20283;-65
2022/01/05 10:52:34;;;;;;;9.90;4.90;;;6.60;99.90;;;;;;5057994;28;20261;-64
2022/01/05 10:55:13;;;;;;;10.93;4.20;;;6.80;99.90;;;;;;5092074;28;20200;-66
2022/01/05 10:57:54;;;;;;;5.50;3.47;;;7.00;99.90;;;;;;5092847;28;20703;-66
2022/01/05 11:00:31;;;;;;;5.30;3.10;;;7.00;99.90;;;;;;5077323;28;20655;-65
2022/01/05 11:02:56;;;;;;;12.10;3.03;;;7.10;99.90;;;;;;5092941;28;20184;-65
2022/01/05 11:05:22;;;;;;;9.97;4.47;;;7.10;99.90;;;;;;5092877;28;20188;-66
2022/01/05 11:07:47;;;;;;;3.80;3.43;;;7.10;99.90;;;;;;5073525;28;20268;-66
2022/01/05 11:10:16;;;;;;;8.47;3.33;;;7.00;99.90;;;;;;5093514;28;20200;-66
2022/01/05 11:12:45;;;;;;;10.53;3.50;;;7.00;99.90;;;;;;5092688;28;20181;-65
2022/01/05 11:15:25;;;;;;;9.87;3.03;;;7.00;99.90;;;;;;5073704;28;20204;-66
2022/01/05 11:18:10;;;;;;;13.73;3.30;;;7.00;99.90;;;;;;5076480;28;20189;-66
2022/01/05 11:20:58;;;;;;;13.57;4.17;;;7.10;99.90;;;;;;5074428;28;20191;-64
2022/01/05 11:23:26;;;;;;;15.87;4.53;;;7.10;99.90;;;;;;5074710;28;20264;-65
2022/01/05 11:25:55;;;;;;;11.73;3.70;;;7.10;99.90;;;;;;5091572;28;20807;-65
2022/01/05 11:28:23;;;;;;;7.60;3.43;;;7.20;99.90;;;;;;5092454;28;20244;-65
2022/01/05 11:30:51;;;;;;;8.77;3.43;;;7.10;99.90;;;;;;5074356;28;20579;-65
2022/01/05 11:33:18;;;;;;;7.10;3.27;;;7.00;99.90;;;;;;5092216;28;20989;-64
2022/01/05 11:35:44;;;;;;;11.37;3.60;;;7.00;99.90;;;;;;5093170;28;20621;-68
2022/01/05 11:38:11;;;;;;;14.53;3.43;;;7.20;99.90;;;;;;5074468;28;20265;-65
2022/01/05 11:40:46;;;;;;;7.53;3.50;;;7.30;99.90;;;;;;5092109;28;20196;-65
2022/01/05 11:43:21;;;;;;;9.93;3.23;;;7.40;99.90;;;;;;5092875;28;20255;-64
2022/01/05 11:45:47;;;;;;;10.73;2.57;;;7.40;99.90;;;;;;5073567;28;20237;-65
2022/01/05 11:48:31;;;;;;;9.30;3.60;;;7.50;99.90;;;;;;5065597;28;20568;-64
2022/01/05 11:51:00;;;;;;;13.93;2.50;;;7.40;99.90;;;;;;5076318;28;20590;-64
2022/01/05 11:53:35;;;;;;;8.63;3.73;;;7.40;99.90;;;;;;5096256;28;20537;-64
2022/01/05 11:56:02;;;;;;;4.83;2.30;;;7.30;99.90;;;;;;5096389;28;20180;-66
2022/01/05 11:58:33;;;;;;;13.73;3.27;;;7.30;99.90;;;;;;5096541;28;20273;-64
2022/01/05 12:01:18;;;;;;;11.17;3.10;;;7.20;99.90;;;;;;5095581;28;20268;-64
2022/01/05 12:03:49;;;;;;;17.33;3.40;;;7.20;99.90;;;;;;5078087;28;20325;-65
2022/01/05 12:06:15;;;;;;;13.73;2.80;;;7.10;99.90;;;;;;5094855;28;20195;-65
2022/01/05 12:08:46;;;;;;;15.03;2.97;;;7.10;99.90;;;;;;5096081;28;20180;-64
2022/01/05 12:11:33;;;;;;;12.47;2.47;;;6.90;99.90;;;;;;5076911;28;20204;-64
2022/01/05 12:14:04;;;;;;;8.17;2.40;;;6.80;99.90;;;;;;5096008;28;20276;-65
2022/01/05 12:16:59;;;;;;;7.00;2.70;;;6.90;99.90;;;;;;5095642;28;20271;-64
2022/01/05 12:19:29;;;;;;;6.53;2.77;;;7.00;99.90;;;;;;5095870;28;20200;-65
2022/01/05 12:21:56;;;;;;;10.33;2.73;;;7.10;99.90;;;;;;5078623;28;20196;-64
2022/01/05 12:24:43;;;;;;;6.77;2.40;;;7.20;99.90;;;;;;5077605;28;20199;-64
2022/01/05 12:27:24;;;;;;;13.30;4.47;;;7.10;99.90;;;;;;5049069;28;20299;-65
2022/01/05 12:29:51;;;;;;;5.07;2.53;;;7.20;99.90;;;;;;5095987;28;20191;-65
2022/01/05 12:32:33;;;;;;;15.60;3.63;;;7.40;99.90;;;;;;5077750;28;20271;-64
2022/01/05 12:35:03;;;;;;;6.07;2.63;;;7.40;99.90;;;;;;5095214;28;20191;-65
2022/01/05 12:37:50;;;;;;;11.03;2.80;;;7.30;99.90;;;;;;5077460;28;20568;-64
2022/01/05 12:40:43;;;;;;;10.97;2.50;;;7.40;99.90;;;;;;5077284;28;20245;-65
2022/01/05 12:43:09;;;;;;;11.77;2.43;;;7.40;99.90;;;;;;5095526;28;20245;-65
2022/01/05 12:45:53;;;;;;;5.43;2.00;;;7.50;99.90;;;;;;5077465;28;20195;-65
2022/01/05 12:48:38;;;;;;;5.27;2.10;;;7.60;99.90;;;;;;5095402;28;20180;-65
2022/01/05 12:51:22;;;;;;;11.87;2.67;;;7.70;99.90;;;;;;5076692;28;20249;-64
2022/01/05 12:53:53;;;;;;;3.73;1.60;;;7.70;99.90;;;;;;5094475;28;20184;-66
2022/01/05 12:56:32;;;;;;;6.83;1.53;;;7.70;99.90;;;;;;5095209;28;20184;-65